Kabwe, Zambia
Current Conditions -  °F | °C
As of 8:00 PM on Sunday 21 Dec 2014 (Local Time) from FLKK Reporting Station
Broken Clouds Broken Clouds  
Wind Chill: 70°   Ceiling: 10000
Heat Index: 70°   Visibility: 6mi
Dew Point: 64°   Wind: 0mph
Humidity: 83%   Direction: NA
Pressure: 30.03"   Gusts: NA
Location:  14.44°S, 28.45°E
Report Text: FLKK 211800Z 00000KT 9999 FEW048CB BKN100 21/18 Q1017 NOSIG
Loading
Personal Weather Stations






























Interactive Weather Map New forecast layout! Learn more

10-Day Weather Forecast

Advertisements
Track Severe Weather on mobile